createdAt,value
2023-01-11T00:04:40.440Z,100338.56
2023-01-11T00:09:41.792Z,100328.50
2023-01-11T00:14:43.248Z,100324.00
2023-01-11T00:19:44.581Z,100315.84
2023-01-11T00:24:45.950Z,100332.44
2023-01-11T00:29:47.714Z,100318.53
2023-01-11T00:34:49.071Z,100302.50
2023-01-11T00:39:51.433Z,100295.13
2023-01-11T00:45:11.539Z,100294.84
2023-01-11T00:50:12.879Z,100300.38
2023-01-11T00:55:14.330Z,100278.97
2023-01-11T01:00:15.900Z,100272.97
2023-01-11T01:05:18.156Z,100269.13
2023-01-11T01:10:20.310Z,100273.31
2023-01-11T01:15:22.020Z,100268.16
2023-01-11T01:20:24.414Z,100270.00
2023-01-11T01:25:25.735Z,100271.31
2023-01-11T01:30:27.102Z,100272.53
2023-01-11T01:35:28.462Z,100286.03
2023-01-11T01:40:30.066Z,100274.97
2023-01-11T01:45:31.403Z,100264.25
2023-01-11T01:50:57.033Z,100263.78
2023-01-11T01:56:01.480Z,100272.28
2023-01-11T02:01:23.368Z,100271.63
2023-01-11T02:06:25.259Z,100263.44
2023-01-11T02:11:30.223Z,100255.09
2023-01-11T02:16:31.812Z,100247.88
2023-01-11T02:22:04.184Z,100231.66
2023-01-11T02:27:33.589Z,100218.97
2023-01-11T02:32:46.998Z,100211.09
2023-01-11T02:38:33.536Z,100203.72
2023-01-11T02:44:13.049Z,100210.63
2023-01-11T02:49:36.773Z,100203.41
2023-01-11T02:54:43.026Z,100202.91
2023-01-11T02:59:48.962Z,100195.69
2023-01-11T03:04:50.406Z,100181.31
2023-01-11T03:09:57.523Z,100176.25
2023-01-11T03:15:07.883Z,100165.91
2023-01-11T03:20:35.110Z,100150.16
2023-01-11T03:25:51.015Z,100149.97
2023-01-11T03:31:02.349Z,100141.94
2023-01-11T03:36:22.394Z,100147.47
2023-01-11T03:41:27.478Z,100130.72
2023-01-11T03:46:38.811Z,100117.81
2023-01-11T03:51:45.717Z,100115.16
2023-01-11T03:57:02.110Z,100120.16
2023-01-11T04:02:03.666Z,100113.13
2023-01-11T04:07:04.984Z,100105.91
2023-01-11T04:12:06.541Z,100100.34
2023-01-11T04:17:07.894Z,100091.63
2023-01-11T04:22:09.252Z,100088.47
2023-01-11T04:27:10.575Z,100069.00
2023-01-11T04:32:11.901Z,100060.97
2023-01-11T04:37:13.235Z,100068.66
2023-01-11T04:42:20.234Z,100058.13
2023-01-11T04:47:23.291Z,100069.16
2023-01-11T04:52:24.608Z,100059.72
2023-01-11T04:57:26.290Z,100055.19
2023-01-11T05:02:27.611Z,100043.63
2023-01-11T05:07:28.948Z,100039.75
2023-01-11T05:12:30.270Z,100029.34
2023-01-11T05:17:31.572Z,100033.34
2023-01-11T05:22:32.930Z,100024.78
2023-01-11T05:27:34.239Z,100014.81
2023-01-11T05:32:35.544Z,100006.75
2023-01-11T05:37:38.247Z,99999.16
2023-01-11T05:42:39.580Z,99997.13
2023-01-11T05:47:40.924Z,100006.84
2023-01-11T05:52:42.244Z,99987.28
2023-01-11T05:57:44.764Z,99986.47
2023-01-11T06:02:46.299Z,99976.22
2023-01-11T06:07:47.640Z,99978.88
2023-01-11T06:13:12.457Z,99959.72
2023-01-11T06:18:14.025Z,99969.81
2023-01-11T06:23:15.390Z,99971.00
2023-01-11T06:28:17.379Z,99955.25
2023-01-11T06:33:19.188Z,99957.59
2023-01-11T06:38:22.431Z,99938.16
2023-01-11T06:43:25.029Z,99948.22
2023-01-11T06:48:27.120Z,99950.44
2023-01-11T06:53:29.346Z,99942.44
2023-01-11T06:58:30.828Z,99934.56
2023-01-11T07:03:32.545Z,99938.28
2023-01-11T07:08:33.960Z,99950.03
2023-01-11T07:13:35.573Z,99948.53
2023-01-11T07:18:37.254Z,99948.16
2023-01-11T07:23:38.583Z,99961.06
2023-01-11T07:28:39.942Z,99960.41
2023-01-11T07:33:41.240Z,99960.03
2023-01-11T07:38:42.574Z,99968.66
2023-01-11T07:43:43.897Z,99970.66
2023-01-11T07:48:45.207Z,99969.16
2023-01-11T07:53:46.947Z,99984.09
2023-01-11T07:58:48.282Z,99968.66
2023-01-11T08:03:50.116Z,99960.28
2023-01-11T08:08:51.459Z,99964.34
2023-01-11T08:14:11.235Z,99957.25
2023-01-11T08:19:12.629Z,99961.50
2023-01-11T08:24:14.164Z,99964.66
2023-01-11T08:29:15.510Z,99955.47
2023-01-11T08:34:16.927Z,99948.63
2023-01-11T08:39:18.290Z,99949.75
2023-01-11T08:44:33.384Z,99952.38
2023-01-11T08:49:35.626Z,99952.28
2023-01-11T08:54:37.001Z,99955.81
2023-01-11T08:59:38.360Z,99955.16
2023-01-11T09:04:39.847Z,99952.22
2023-01-11T09:09:41.242Z,99956.94
2023-01-11T09:14:42.794Z,99956.41
2023-01-11T09:19:44.139Z,99956.03
2023-01-11T09:24:45.453Z,99946.56
2023-01-11T09:29:46.802Z,99940.66
2023-01-11T09:34:49.619Z,99955.09
2023-01-11T09:39:52.465Z,99958.78
2023-01-11T09:44:57.235Z,99964.50
2023-01-11T09:50:02.217Z,99971.47
2023-01-11T09:55:04.568Z,99975.63
2023-01-11T10:00:35.159Z,99967.28
2023-01-11T10:05:51.370Z,99956.53
2023-01-11T10:18:29.556Z,99949.88
2023-01-11T10:22:43.974Z,99960.44
2023-01-11T10:28:01.566Z,99961.34
2023-01-11T10:33:25.326Z,99956.53
2023-01-11T10:39:03.247Z,99961.00
2023-01-11T10:44:18.880Z,99973.59
2023-01-11T10:49:43.983Z,99983.22
2023-01-11T10:54:51.099Z,99991.28
2023-01-11T11:00:05.242Z,99990.94
2023-01-11T11:05:19.843Z,99983.03
2023-01-11T11:10:50.116Z,99983.50
2023-01-11T11:16:16.267Z,99962.84
2023-01-11T11:21:31.646Z,99962.06
2023-01-11T11:26:39.407Z,99938.06
2023-01-11T11:31:46.932Z,99930.91
2023-01-11T11:36:49.515Z,99929.09
2023-01-11T11:41:53.195Z,99934.31
2023-01-11T11:47:02.048Z,99922.97
2023-01-11T11:52:05.375Z,99932.34
2023-01-11T11:57:22.140Z,99932.34
2023-01-11T12:02:28.156Z,99943.06
2023-01-11T12:07:49.893Z,99957.19
2023-01-11T12:12:58.074Z,99961.41
2023-01-11T12:18:28.114Z,99976.91
2023-01-11T12:23:29.457Z,99974.31
2023-01-11T12:28:53.129Z,99975.38
2023-01-11T12:34:13.146Z,99968.25
2023-01-11T12:39:21.412Z,99960.63
2023-01-11T12:45:07.474Z,99963.97
2023-01-11T12:50:22.340Z,99981.66
2023-01-11T12:55:41.913Z,99973.25
2023-01-11T13:00:55.370Z,99985.75
2023-01-11T13:06:23.980Z,99992.41
2023-01-11T13:11:37.496Z,100004.03
2023-01-11T13:16:51.933Z,100002.00
2023-01-11T13:21:55.900Z,99991.72
2023-01-11T13:27:11.890Z,100009.78
2023-01-11T13:32:18.172Z,99999.75
2023-01-11T13:37:42.987Z,99999.16
2023-01-11T13:42:50.518Z,100004.16
2023-01-11T13:47:56.205Z,100009.75
2023-01-11T13:53:28.276Z,100001.28
2023-01-11T13:58:42.228Z,100022.06
2023-01-11T14:03:55.517Z,100029.22
2023-01-11T14:09:10.948Z,100023.53
2023-01-11T14:14:27.055Z,100039.44
2023-01-11T14:19:40.323Z,100030.25
2023-01-11T14:25:07.919Z,100042.50
2023-01-11T14:30:38.698Z,100058.66
2023-01-11T14:35:58.835Z,100061.75
2023-01-11T14:41:25.498Z,100086.19
2023-01-11T14:46:46.512Z,100092.81
2023-01-11T14:52:07.752Z,100100.00
2023-01-11T14:57:36.457Z,100118.28
2023-01-11T15:02:37.958Z,100140.44
2023-01-11T15:07:41.821Z,100157.72
2023-01-11T15:12:43.159Z,100157.28
2023-01-11T15:18:04.175Z,100162.69
2023-01-11T15:23:05.927Z,100174.00
2023-01-11T15:28:42.315Z,100184.59
2023-01-11T15:33:48.737Z,100194.03
2023-01-11T15:39:07.172Z,100202.22
2023-01-11T15:44:48.277Z,100213.56
2023-01-11T15:50:10.999Z,100223.56
2023-01-11T15:55:49.287Z,100220.31
2023-01-11T16:01:09.502Z,100216.59
2023-01-11T16:06:20.085Z,100213.84
2023-01-11T16:11:54.292Z,100220.97
2023-01-11T16:16:56.422Z,100226.91
2023-01-11T16:22:01.750Z,100234.66
2023-01-11T16:27:04.246Z,100228.63
2023-01-11T16:32:08.071Z,100236.06
2023-01-11T16:37:22.826Z,100245.88
2023-01-11T16:42:29.197Z,100249.84
2023-01-11T16:47:30.521Z,100254.72
2023-01-11T16:52:37.594Z,100269.91
2023-01-11T16:57:44.025Z,100276.56
2023-01-11T17:02:48.792Z,100278.59
2023-01-11T17:07:50.253Z,100283.34
2023-01-11T17:13:34.727Z,100299.22
2023-01-11T17:18:40.798Z,100304.09
2023-01-11T17:23:43.993Z,100309.03
2023-01-11T17:28:47.515Z,100326.88
2023-01-11T17:33:59.089Z,100339.00
2023-01-11T17:39:01.737Z,100345.91
2023-01-11T17:44:22.005Z,100363.88
2023-01-11T17:49:25.554Z,100360.69
2023-01-11T17:54:27.642Z,100355.66
2023-01-11T17:59:30.295Z,100363.72
2023-01-11T18:04:32.074Z,100368.06
2023-01-11T18:09:37.739Z,100377.16
2023-01-11T18:14:46.467Z,100395.28
2023-01-11T18:19:47.826Z,100401.63
2023-01-11T18:24:53.530Z,100402.00
2023-01-11T18:29:57.108Z,100405.69
2023-01-11T18:34:58.983Z,100411.06
2023-01-11T18:40:01.265Z,100419.94
2023-01-11T18:45:02.801Z,100414.44
2023-01-11T18:50:04.764Z,100413.75
2023-01-11T18:55:06.887Z,100407.03
2023-01-11T19:00:10.428Z,100423.47
2023-01-11T19:05:13.245Z,100430.03
2023-01-11T19:10:19.342Z,100429.69
2023-01-11T19:15:20.694Z,100431.69
2023-01-11T19:20:22.010Z,100445.78
2023-01-11T19:25:23.450Z,100467.91
2023-01-11T19:30:24.823Z,100472.59
2023-01-11T19:35:26.212Z,100464.34
2023-01-11T19:40:27.541Z,100462.84
2023-01-11T19:45:28.849Z,100473.41
2023-01-11T19:50:30.251Z,100474.09
2023-01-11T19:55:31.559Z,100465.19
2023-01-11T20:00:32.893Z,100451.94
2023-01-11T20:05:34.665Z,100450.78
2023-01-11T20:10:35.999Z,100451.28
2023-01-11T20:15:38.563Z,100444.06
2023-01-11T20:20:39.949Z,100438.03
2023-01-11T20:25:41.414Z,100455.59
2023-01-11T20:30:43.467Z,100465.81
2023-01-11T20:35:45.526Z,100478.22
2023-01-11T20:40:46.871Z,100477.56
2023-01-11T20:45:56.194Z,100469.00
2023-01-11T20:51:00.960Z,100450.22
2023-01-11T20:56:05.376Z,100443.81
2023-01-11T21:01:08.792Z,100425.56
2023-01-11T21:06:10.530Z,100414.00
2023-01-11T21:11:15.799Z,100400.06
2023-01-11T21:16:17.187Z,100418.84
2023-01-11T21:21:19.266Z,100410.94
2023-01-11T21:26:20.683Z,100421.81
2023-01-11T21:31:22.854Z,100418.16
2023-01-11T21:36:26.276Z,100409.63
2023-01-11T21:41:48.562Z,100402.75
2023-01-11T21:46:50.280Z,100399.56
2023-01-11T21:51:52.440Z,100409.44
2023-01-11T21:56:53.791Z,100411.94
2023-01-11T22:01:55.250Z,100416.47
2023-01-11T22:06:58.029Z,100423.69
2023-01-11T22:12:00.567Z,100426.09
2023-01-11T22:17:04.444Z,100432.66
2023-01-11T22:22:06.342Z,100440.34
2023-01-11T22:27:07.701Z,100435.31
2023-01-11T22:32:09.520Z,100423.09
2023-01-11T22:37:11.007Z,100406.16
2023-01-11T22:42:12.342Z,100409.84
2023-01-11T22:47:13.699Z,100413.66
2023-01-11T22:52:15.075Z,100417.38
2023-01-11T22:57:16.424Z,100426.09
2023-01-11T23:02:17.831Z,100419.38
2023-01-11T23:07:19.528Z,100423.41
2023-01-11T23:12:39.482Z,100425.72
2023-01-11T23:17:40.782Z,100416.72
2023-01-11T23:22:42.204Z,100409.19
2023-01-11T23:27:43.536Z,100391.25
2023-01-11T23:32:45.060Z,100397.13
2023-01-11T23:37:46.394Z,100390.63
2023-01-11T23:42:47.747Z,100379.03
2023-01-11T23:47:49.142Z,100378.03
2023-01-11T23:52:50.487Z,100381.19
2023-01-11T23:58:08.926Z,100369.28
